Time;durP1;ratioP1;P1;durP2;ratioP2;P2;SDS_P1;SDS_P2;PMS_P1;PMS_P2;Temp;Humidity;BMP_temperature;BMP_pressure;BME280_temperature;BME280_humidity;BME280_pressure;Samples;Min_cycle;Max_cycle;Signal;HPM_P1;HPM_P2
2021/04/26 00:03:00;;;;;;;30.90;13.55;;;;;;;1.49;54.04;100501.55;147766;1147;104558;-75
2021/04/26 00:06:04;;;;;;;29.20;12.13;;;;;;;1.55;54.01;100495.92;147738;1147;104946;-76
2021/04/26 00:09:08;;;;;;;30.97;12.55;;;;;;;1.55;53.44;100502.02;147472;1146;104602;-76
2021/04/26 00:12:11;;;;;;;27.52;11.60;;;;;;;1.55;54.21;100498.55;147647;1146;104480;-79
2021/04/26 00:15:18;;;;;;;29.70;13.55;;;;;;;1.55;54.20;100502.02;147770;1146;104935;-77
2021/04/26 00:18:22;;;;;;;40.05;15.68;;;;;;;1.56;53.93;100508.16;147665;1147;104684;-76
2021/04/26 00:21:26;;;;;;;51.50;17.43;;;;;;;1.57;53.60;100505.41;147788;1148;104812;-76
2021/04/26 00:24:29;;;;;;;48.28;21.48;;;;;;;1.57;53.65;100505.41;147729;1147;104563;-73
2021/04/26 00:27:32;;;;;;;35.20;17.90;;;;;;;1.52;53.64;100504.84;147752;1148;104528;-73
2021/04/26 00:30:35;;;;;;;33.02;15.55;;;;;;;1.41;53.81;100499.36;147739;1147;104569;-73
2021/04/26 00:33:39;;;;;;;34.70;16.65;;;;;;;1.34;53.83;100503.27;147487;1147;104553;-79
2021/04/26 00:36:42;;;;;;;42.53;17.75;;;;;;;1.29;54.46;100503.55;147401;1147;104899;-75
2021/04/26 00:39:45;;;;;;;41.53;18.97;;;;;;;1.31;54.05;100508.69;147361;1147;104575;-75
2021/04/26 00:42:48;;;;;;;38.10;16.93;;;;;;;1.32;54.00;100513.02;147693;1147;104933;-76
2021/04/26 00:45:51;;;;;;;33.35;15.38;;;;;;;1.32;53.72;100519.13;147739;1146;104677;-76
2021/04/26 00:48:54;;;;;;;33.48;14.38;;;;;;;1.32;53.96;100518.28;147535;1147;104505;-76
2021/04/26 00:51:58;;;;;;;33.63;14.90;;;;;;;1.33;53.89;100517.36;147451;1147;104420;-75
2021/04/26 00:55:01;;;;;;;35.80;14.93;;;;;;;1.37;54.14;100518.87;147694;1147;104613;-77
2021/04/26 00:58:05;;;;;;;38.83;14.90;;;;;;;1.35;54.14;100516.33;147828;1148;104451;-73
2021/04/26 01:01:09;;;;;;;40.00;17.10;;;;;;;1.38;54.12;100512.67;147710;1148;104621;-75
2021/04/26 01:04:12;;;;;;;38.58;15.68;;;;;;;1.43;54.15;100517.69;147637;1147;104577;-78
2021/04/26 01:07:16;;;;;;;26.25;11.50;;;;;;;1.44;54.21;100517.56;147717;1147;104519;-73
2021/04/26 01:10:24;;;;;;;20.48;9.15;;;;;;;1.40;55.24;100516.05;147728;1147;104588;-76
2021/04/26 01:13:46;;;;;;;18.52;9.43;;;;;;;1.38;55.72;100512.67;147390;1148;104540;-72
2021/04/26 01:16:57;;;;;;;22.13;9.80;;;;;;;1.45;55.62;100516.64;147733;1147;104640;-72
2021/04/26 01:20:30;;;;;;;21.20;10.10;;;;;;;1.37;56.97;100513.62;147797;1147;104562;-74
2021/04/26 01:24:21;;;;;;;19.60;10.03;;;;;;;1.32;55.93;100505.14;147750;1148;104483;-77
2021/04/26 01:27:55;;;;;;;24.60;11.33;;;;;;;1.31;56.47;100503.42;147509;1147;104595;-75
2021/04/26 01:31:07;;;;;;;22.20;10.60;;;;;;;1.34;55.97;100513.78;147412;1148;104575;-73
2021/04/26 01:34:16;;;;;;;26.03;11.47;;;;;;;1.28;56.37;100507.09;147765;1147;104636;-74
2021/04/26 01:37:36;;;;;;;24.63;10.98;;;;;;;1.32;55.78;100500.72;147753;1147;104562;-75
2021/04/26 01:40:42;;;;;;;25.08;12.00;;;;;;;1.33;55.60;100497.17;147739;1148;104473;-72
2021/04/26 01:43:47;;;;;;;27.53;11.97;;;;;;;1.33;55.94;100501.59;147791;1147;104476;-74
2021/04/26 01:46:51;;;;;;;26.73;12.87;;;;;;;1.31;55.61;100498.17;147821;1147;104451;-75
2021/04/26 01:49:56;;;;;;;25.20;12.43;;;;;;;1.28;55.62;100493.11;147742;1147;104662;-74
2021/04/26 01:53:01;;;;;;;25.97;13.40;;;;;;;1.28;55.46;100508.88;147861;1147;104478;-73
2021/04/26 01:56:08;;;;;;;24.27;12.00;;;;;;;1.30;55.71;100512.27;147748;1147;104480;-74
2021/04/26 01:59:20;;;;;;;23.95;11.10;;;;;;;1.33;56.21;100512.94;147716;1147;104485;-75
2021/04/26 02:02:25;;;;;;;20.85;10.63;;;;;;;1.24;57.73;100523.14;147654;1147;104560;-75
2021/04/26 02:05:30;;;;;;;21.25;9.80;;;;;;;1.12;57.33;100504.49;147752;1147;104761;-75
2021/04/26 02:08:42;;;;;;;18.32;10.32;;;;;;;1.16;56.92;100492.87;147702;1146;104567;-73
2021/04/26 02:11:46;;;;;;;19.52;9.53;;;;;;;1.28;57.40;100479.96;147738;1147;104508;-72
2021/04/26 02:14:51;;;;;;;23.42;11.08;;;;;;;1.36;56.75;100481.20;147690;1145;105136;-73
2021/04/26 02:17:55;;;;;;;23.35;10.82;;;;;;;1.43;56.90;100491.39;147624;1147;104519;-73
2021/04/26 02:20:59;;;;;;;25.83;11.33;;;;;;;1.51;56.62;100489.98;147707;1147;104633;-74
2021/04/26 02:24:06;;;;;;;29.27;14.38;;;;;;;1.64;56.57;100484.03;147767;1148;104572;-73
2021/04/26 02:27:09;;;;;;;22.32;11.10;;;;;;;1.69;56.51;100485.42;147800;1148;104477;-72
2021/04/26 02:30:14;;;;;;;21.85;10.00;;;;;;;1.70;57.08;100488.92;147699;1146;104497;-73
2021/04/26 02:33:21;;;;;;;22.25;11.83;;;;;;;1.72;57.16;100484.42;147808;1147;104563;-74
2021/04/26 02:36:51;;;;;;;19.80;10.80;;;;;;;1.80;57.44;100482.17;147811;1146;104570;-73
2021/04/26 02:39:59;;;;;;;23.27;11.73;;;;;;;1.86;57.10;100480.95;147790;1146;104615;-75
2021/04/26 02:43:03;;;;;;;21.60;10.78;;;;;;;1.92;57.21;100478.79;147790;1147;104579;-75
2021/04/26 02:46:09;;;;;;;18.23;9.88;;;;;;;1.98;57.16;100480.20;147734;1147;104884;-71
2021/04/26 02:49:14;;;;;;;18.50;9.15;;;;;;;2.02;57.55;100483.51;147744;1147;104539;-72
2021/04/26 02:52:18;;;;;;;21.50;9.68;;;;;;;2.09;56.89;100474.31;147726;1146;104916;-73
2021/04/26 02:55:24;;;;;;;20.87;9.80;;;;;;;2.11;56.49;100486.42;147514;1147;104541;-77
2021/04/26 02:58:28;;;;;;;22.67;10.70;;;;;;;2.12;56.48;100474.97;147528;1148;104601;-75
2021/04/26 03:01:33;;;;;;;20.72;9.68;;;;;;;2.11;57.15;100467.16;147358;1147;104482;-77
2021/04/26 03:04:45;;;;;;;18.37;9.53;;;;;;;2.05;56.51;100470.17;147386;1147;104487;-75
2021/04/26 03:07:49;;;;;;;18.93;9.30;;;;;;;1.86;57.17;100481.80;147366;1147;105039;-74
2021/04/26 03:10:55;;;;;;;21.17;10.40;;;;;;;1.80;57.63;100474.28;147426;1146;104492;-73
2021/04/26 03:14:01;;;;;;;17.90;8.40;;;;;;;1.79;57.58;100480.49;148478;1147;104489;-74
2021/04/26 03:17:07;;;;;;;19.27;9.80;;;;;;;1.77;57.45;100474.45;147736;1145;104983;-73
2021/04/26 03:20:15;;;;;;;21.48;11.18;;;;;;;1.69;57.06;100460.91;147763;1147;104828;-74
2021/04/26 03:23:36;;;;;;;23.07;10.13;;;;;;;1.59;57.24;100468.50;147352;1146;104560;-74
2021/04/26 03:26:41;;;;;;;19.35;10.40;;;;;;;1.46;57.26;100470.16;147605;1146;104586;-76
2021/04/26 03:29:47;;;;;;;20.55;9.63;;;;;;;1.44;57.11;100470.23;147449;1147;104822;-75
2021/04/26 03:32:52;;;;;;;21.03;10.00;;;;;;;1.41;57.14;100466.97;147700;1147;104483;-74
2021/04/26 03:35:56;;;;;;;22.43;9.87;;;;;;;1.35;57.36;100473.42;147598;1147;104575;-76
2021/04/26 03:39:00;;;;;;;22.77;10.50;;;;;;;1.31;56.58;100477.14;147686;1146;104618;-73
2021/04/26 03:42:04;;;;;;;18.67;8.68;;;;;;;1.26;57.30;100468.69;147804;1146;104576;-75
2021/04/26 03:45:13;;;;;;;18.73;8.93;;;;;;;1.27;57.09;100473.00;147772;1148;104617;-74
2021/04/26 03:48:36;;;;;;;17.45;8.40;;;;;;;1.24;57.21;100468.77;147669;1147;104623;-74
2021/04/26 03:52:03;;;;;;;18.73;8.75;;;;;;;1.25;57.06;100478.37;147271;1148;104430;-77
2021/04/26 03:55:32;;;;;;;17.60;8.70;;;;;;;1.28;57.18;100480.80;147519;1148;104601;-76
2021/04/26 03:58:36;;;;;;;17.98;9.30;;;;;;;1.39;57.53;100480.20;147811;1147;104513;-73
2021/04/26 04:01:41;;;;;;;18.40;9.10;;;;;;;1.55;57.77;100483.61;147790;1147;104486;-74
2021/04/26 04:04:44;;;;;;;16.70;8.68;;;;;;;1.78;56.71;100481.41;147741;1147;104473;-74
2021/04/26 04:08:17;;;;;;;17.07;9.00;;;;;;;1.96;57.74;100479.45;147092;1147;104809;-72
2021/04/26 04:11:55;;;;;;;15.98;9.05;;;;;;;2.12;57.26;100484.66;146895;1150;104593;-72
2021/04/26 04:15:26;;;;;;;16.70;8.98;;;;;;;2.29;58.59;100487.11;147781;1147;104572;-74
2021/04/26 04:18:30;;;;;;;65.10;26.45;;;;;;;2.42;59.51;100494.24;147658;1147;104477;-72
2021/04/26 04:21:33;;;;;;;105.63;41.60;;;;;;;2.36;58.61;100487.56;147690;1147;104572;-71
2021/04/26 04:24:38;;;;;;;147.78;45.12;;;;;;;2.32;59.80;100500.06;147784;1147;104847;-71
2021/04/26 04:27:42;;;;;;;65.28;25.50;;;;;;;2.36;59.64;100493.67;147578;1147;104574;-73
2021/04/26 04:30:46;;;;;;;99.70;38.55;;;;;;;2.43;59.61;100499.42;147816;1147;104535;-72
2021/04/26 04:34:25;;;;;;;68.78;33.13;;;;;;;2.58;59.15;100502.90;147051;1151;104630;-72
2021/04/26 04:37:47;;;;;;;48.90;23.25;;;;;;;2.80;58.98;100491.00;147714;1147;104570;-73
2021/04/26 04:41:08;;;;;;;;;;;;;;;3.05;59.53;100499.02;147790;1147;104478;-71
2021/04/26 04:44:12;;;;;;;94.00;44.73;;;;;;;3.19;59.17;100490.21;147788;1147;104684;-71
2021/04/26 04:47:16;;;;;;;39.33;16.52;;;;;;;3.33;58.57;100499.88;147819;1147;104550;-72
2021/04/26 04:50:19;;;;;;;37.63;14.10;;;;;;;3.46;59.35;100499.90;147665;1147;104919;-71
2021/04/26 04:53:23;;;;;;;20.62;8.75;;;;;;;3.49;58.70;100504.98;147740;1147;104564;-70
2021/04/26 04:56:27;;;;;;;15.43;7.53;;;;;;;3.64;60.22;100503.13;148311;1146;104484;-71
2021/04/26 04:59:30;;;;;;;29.00;12.10;;;;;;;3.74;58.16;100504.20;147519;1146;104531;-73
2021/04/26 05:02:42;;;;;;;28.70;12.40;;;;;;;3.63;60.04;100496.98;147729;1147;104563;-71
2021/04/26 05:06:04;;;;;;;11.18;5.20;;;;;;;3.51;58.78;100493.38;147769;1148;104489;-72
2021/04/26 05:09:26;;;;;;;12.33;5.90;;;;;;;3.32;60.55;100506.09;147737;1147;104484;-72
2021/04/26 05:12:48;;;;;;;40.17;13.90;;;;;;;3.23;59.47;100498.77;147643;1148;104494;-72
2021/04/26 05:16:12;;;;;;;14.47;6.15;;;;;;;3.31;60.95;100501.75;147414;1148;104643;-73
2021/04/26 05:19:15;;;;;;;20.30;8.48;;;;;;;3.25;59.02;100513.57;147494;1147;104365;-75
2021/04/26 05:22:19;;;;;;;18.65;8.05;;;;;;;3.23;59.93;100510.16;147281;1148;104947;-72
2021/04/26 05:25:27;;;;;;;19.25;7.85;;;;;;;3.34;60.38;100510.31;147704;1147;104592;-72
2021/04/26 05:28:31;;;;;;;28.63;13.63;;;;;;;3.49;59.64;100515.54;147780;1147;104484;-72
2021/04/26 05:31:36;;;;;;;15.65;7.03;;;;;;;3.59;59.60;100523.69;147392;1147;104601;-72
2021/04/26 05:34:40;;;;;;;23.73;9.18;;;;;;;3.73;60.08;100519.20;147238;1147;104487;-73
2021/04/26 05:37:43;;;;;;;19.00;7.92;;;;;;;3.79;60.21;100525.86;147453;1147;104582;-73
2021/04/26 05:40:48;;;;;;;10.30;4.47;;;;;;;3.84;59.37;100526.38;147757;1147;104478;-74
2021/04/26 05:43:52;;;;;;;24.47;10.55;;;;;;;3.88;60.08;100534.94;147838;1148;104486;-73
2021/04/26 05:46:55;;;;;;;32.53;11.73;;;;;;;3.91;59.97;100532.94;147726;1148;104620;-75
2021/04/26 05:49:59;;;;;;;18.80;8.15;;;;;;;3.96;60.34;100544.98;147496;1147;104562;-74
2021/04/26 05:53:02;;;;;;;23.07;9.78;;;;;;;3.83;60.80;100543.17;147469;1147;104483;-78
2021/04/26 05:56:05;;;;;;;17.98;7.55;;;;;;;3.78;60.08;100539.98;147571;1147;104492;-76
2021/04/26 05:59:09;;;;;;;24.47;9.53;;;;;;;3.81;59.48;100546.84;147776;1147;104473;-75
2021/04/26 06:02:12;;;;;;;17.10;6.60;;;;;;;3.87;59.09;100549.94;147725;1147;104620;-75
2021/04/26 06:05:16;;;;;;;8.33;4.50;;;;;;;4.06;60.07;100546.03;147425;1148;104560;-74
2021/04/26 06:08:19;;;;;;;7.78;4.10;;;;;;;4.28;59.52;100548.91;147794;1148;104861;-74
2021/04/26 06:11:22;;;;;;;6.60;3.33;;;;;;;4.39;58.35;100547.31;147623;1148;104564;-74
2021/04/26 06:14:25;;;;;;;14.33;5.90;;;;;;;4.46;58.81;100556.52;147753;1146;104457;-74
2021/04/26 06:17:28;;;;;;;16.33;5.83;;;;;;;4.39;58.53;100556.11;147754;1148;104540;-74
2021/04/26 06:20:31;;;;;;;9.45;4.08;;;;;;;4.38;58.12;100550.92;147813;1147;104494;-75
2021/04/26 06:23:34;;;;;;;6.42;2.90;;;;;;;4.26;58.56;100553.45;147717;1147;104566;-75
2021/04/26 06:26:38;;;;;;;14.05;5.47;;;;;;;4.18;58.05;100550.50;147774;1147;104460;-75
2021/04/26 06:29:41;;;;;;;13.80;5.17;;;;;;;4.25;58.41;100548.27;147784;1147;104983;-74
2021/04/26 06:32:44;;;;;;;8.90;3.65;;;;;;;4.25;57.83;100549.14;147715;1147;104577;-74
2021/04/26 06:35:49;;;;;;;5.40;2.33;;;;;;;4.21;58.00;100539.71;147466;1147;104532;-75
2021/04/26 06:38:52;;;;;;;14.90;5.30;;;;;;;4.27;57.75;100541.95;147441;1147;104575;-75
2021/04/26 06:41:57;;;;;;;8.78;3.80;;;;;;;4.36;58.12;100547.55;147642;1147;104573;-75
2021/04/26 06:45:00;;;;;;;17.02;6.53;;;;;;;4.49;57.19;100554.52;147517;1147;104473;-76
2021/04/26 06:48:04;;;;;;;10.18;4.97;;;;;;;4.60;57.97;100551.13;147783;1147;104588;-75
2021/04/26 06:51:07;;;;;;;13.40;5.80;;;;;;;4.71;57.57;100553.88;147802;1147;104486;-75
2021/04/26 06:54:10;;;;;;;10.80;5.28;;;;;;;4.93;57.10;100552.34;147777;1147;104577;-77
2021/04/26 06:57:14;;;;;;;18.02;7.12;;;;;;;4.98;56.89;100550.20;147675;1148;104841;-75
2021/04/26 07:00:19;;;;;;;8.45;4.92;;;;;;;4.93;56.41;100554.98;147783;1147;104617;-75
2021/04/26 07:03:22;;;;;;;6.42;4.17;;;;;;;4.83;56.22;100543.36;147759;1147;104618;-75
2021/04/26 07:06:26;;;;;;;11.43;5.92;;;;;;;4.69;57.15;100550.46;147723;1147;104563;-78
2021/04/26 07:09:29;;;;;;;7.63;5.33;;;;;;;4.76;57.27;100552.70;147754;1147;104565;-73
2021/04/26 07:12:33;;;;;;;9.50;5.70;;;;;;;4.96;56.03;100556.56;147729;1147;104487;-75
2021/04/26 07:15:36;;;;;;;11.95;6.55;;;;;;;5.25;56.37;100555.33;147765;1147;104574;-75
2021/04/26 07:18:39;;;;;;;5.80;4.05;;;;;;;5.55;56.05;100555.83;147688;1147;104931;-74
2021/04/26 07:21:42;;;;;;;5.45;3.33;;;;;;;5.76;56.25;100546.28;147779;1147;104572;-75
2021/04/26 07:24:46;;;;;;;5.85;3.85;;;;;;;6.03;55.71;100542.55;147737;1147;104520;-74
2021/04/26 07:27:49;;;;;;;5.30;3.72;;;;;;;5.99;55.80;100549.88;147807;1147;104491;-77
2021/04/26 07:30:52;;;;;;;5.90;4.28;;;;;;;6.03;54.64;100546.03;147736;1147;104554;-75
2021/04/26 07:33:55;;;;;;;8.45;5.00;;;;;;;6.22;54.20;100548.13;147741;1147;104566;-75
2021/04/26 07:37:00;;;;;;;6.45;4.10;;;;;;;6.43;54.01;100542.14;147767;1147;104555;-72
2021/04/26 07:40:06;;;;;;;9.58;5.67;;;;;;;6.39;53.78;100543.31;147752;1147;104483;-75
2021/04/26 07:43:09;;;;;;;6.30;4.13;;;;;;;6.19;54.08;100548.34;147756;1147;104481;-75
2021/04/26 07:46:12;;;;;;;9.25;5.12;;;;;;;6.14;53.86;100555.83;147758;1147;104572;-75
2021/04/26 07:49:15;;;;;;;7.90;5.17;;;;;;;6.18;53.87;100541.38;147703;1148;104540;-77
2021/04/26 07:52:19;;;;;;;6.20;4.30;;;;;;;6.39;52.11;100532.71;147775;1147;104556;-75
2021/04/26 07:55:22;;;;;;;4.90;3.42;;;;;;;6.46;53.39;100524.16;147729;1146;104483;-79
2021/04/26 07:58:25;;;;;;;5.93;3.77;;;;;;;6.47;54.04;100541.77;147702;1147;104564;-75
2021/04/26 08:01:28;;;;;;;11.12;7.53;;;;;;;6.48;52.48;100540.78;147755;1147;104470;-77
2021/04/26 08:04:31;;;;;;;4.50;2.90;;;;;;;6.42;52.81;100537.78;147744;1147;104629;-76
2021/04/26 08:07:34;;;;;;;3.92;2.55;;;;;;;6.53;52.17;100537.80;147746;1147;104568;-75
2021/04/26 08:10:39;;;;;;;4.20;2.87;;;;;;;6.87;49.85;100527.16;147508;1147;104572;-78
2021/04/26 08:13:42;;;;;;;4.62;2.52;;;;;;;6.95;50.78;100530.06;147578;1147;104540;-80
2021/04/26 08:16:45;;;;;;;2.85;1.62;;;;;;;6.92;48.96;100535.59;147294;1147;104872;-76
2021/04/26 08:19:48;;;;;;;8.45;5.37;;;;;;;6.77;46.53;100536.82;147702;1148;104633;-75
2021/04/26 08:22:51;;;;;;;2.97;2.30;;;;;;;6.44;48.17;100531.39;147787;1147;104489;-76
2021/04/26 08:25:55;;;;;;;4.70;2.90;;;;;;;6.49;47.52;100529.23;147695;1148;104486;-75
2021/04/26 08:28:58;;;;;;;3.90;1.85;;;;;;;6.67;51.32;100516.33;147462;1147;104484;-75
2021/04/26 08:32:01;;;;;;;4.33;1.82;;;;;;;6.99;49.17;100522.70;147252;1147;104484;-77
2021/04/26 08:35:06;;;;;;;3.33;1.87;;;;;;;7.07;47.51;100536.19;147371;1147;104636;-77
2021/04/26 08:38:10;;;;;;;3.63;2.53;;;;;;;6.88;45.34;100520.90;147870;1147;104572;-76
2021/04/26 08:41:16;;;;;;;2.83;1.67;;;;;;;6.72;48.06;100520.42;147439;1147;104543;-76
2021/04/26 08:44:19;;;;;;;1.85;1.47;;;;;;;6.91;49.30;100510.05;147886;1147;104491;-77
2021/04/26 08:47:25;;;;;;;2.67;1.80;;;;;;;7.32;48.46;100508.49;147812;1148;104491;-76
2021/04/26 08:50:29;;;;;;;4.17;2.70;;;;;;;7.47;44.40;100507.23;147708;1148;104791;-78
2021/04/26 08:53:33;;;;;;;8.65;4.30;;;;;;;7.61;48.54;100499.94;147836;1147;104508;-76
2021/04/26 08:56:36;;;;;;;9.80;5.17;;;;;;;7.93;45.39;100499.02;147763;1148;104497;-76
2021/04/26 08:59:42;;;;;;;4.53;2.67;;;;;;;8.05;47.63;100503.31;147783;1147;104566;-76
2021/04/26 09:02:54;;;;;;;3.17;2.17;;;;;;;8.12;46.72;100492.98;147797;1147;104446;-77
2021/04/26 09:05:58;;;;;;;4.35;2.30;;;;;;;7.99;42.91;100504.68;147787;1147;104685;-77
2021/04/26 09:09:01;;;;;;;5.55;3.67;;;;;;;7.73;42.36;100504.20;147643;1147;104503;-77
2021/04/26 09:12:07;;;;;;;4.70;3.22;;;;;;;7.61;45.36;100506.08;147715;1147;104576;-77
2021/04/26 09:15:11;;;;;;;2.95;1.90;;;;;;;7.57;45.67;100503.82;147700;1147;104586;-76
2021/04/26 09:18:15;;;;;;;4.22;2.27;;;;;;;7.61;44.90;100499.94;147777;1147;104700;-78
2021/04/26 09:21:21;;;;;;;2.60;1.60;;;;;;;7.64;45.98;100502.31;147800;1147;104628;-76
2021/04/26 09:24:29;;;;;;;3.50;1.80;;;;;;;7.78;44.86;100506.50;147827;1147;104479;-77
2021/04/26 09:27:32;;;;;;;2.60;1.57;;;;;;;8.03;45.55;100500.78;147736;1147;104481;-76
2021/04/26 09:30:50;;;;;;;3.43;1.63;;;;;;;8.16;45.32;100500.59;147749;1148;104557;-76
2021/04/26 09:33:53;;;;;;;2.72;1.65;;;;;;;8.11;45.05;100500.12;147793;1147;104953;-77
2021/04/26 09:37:05;;;;;;;2.45;1.50;;;;;;;7.81;44.09;100500.91;147478;1147;104627;-74
2021/04/26 09:40:12;;;;;;;5.78;4.00;;;;;;;7.54;45.28;100494.27;147782;1147;104490;-77
2021/04/26 09:43:21;;;;;;;8.65;5.33;;;;;;;7.31;46.23;100512.10;147741;1147;104562;-76
2021/04/26 09:46:39;;;;;;;5.70;3.67;;;;;;;7.25;44.86;100509.95;147549;1147;104481;-76
2021/04/26 09:50:05;;;;;;;4.27;2.57;;;;;;;6.98;44.43;100505.92;147635;1147;104573;-76
2021/04/26 09:53:09;;;;;;;10.20;4.85;;;;;;;6.71;46.75;100516.09;147780;1147;104886;-76
2021/04/26 09:56:14;;;;;;;7.42;3.90;;;;;;;6.82;47.55;100527.53;147847;1147;104619;-76
2021/04/26 09:59:18;;;;;;;4.62;3.05;;;;;;;6.97;47.09;100514.86;147751;1147;104470;-76
2021/04/26 10:02:22;;;;;;;7.45;3.87;;;;;;;7.18;46.49;100514.07;147721;1148;104473;-76
2021/04/26 10:05:27;;;;;;;6.10;3.40;;;;;;;7.36;46.32;100517.89;147853;1147;104569;-76
2021/04/26 10:08:30;;;;;;;4.58;2.90;;;;;;;7.55;46.11;100503.11;147873;1147;104610;-75
2021/04/26 10:11:36;;;;;;;4.72;2.30;;;;;;;7.83;47.09;100507.80;147839;1147;105142;-77
2021/04/26 10:14:42;;;;;;;3.52;2.15;;;;;;;8.12;45.89;100501.83;147817;1147;104432;-78
2021/04/26 10:17:47;;;;;;;3.75;2.58;;;;;;;8.49;46.65;100501.34;147797;1147;104447;-77
2021/04/26 10:20:51;;;;;;;4.35;2.45;;;;;;;8.87;45.88;100483.80;147800;1147;104564;-76
2021/04/26 10:23:55;;;;;;;7.30;3.55;;;;;;;9.24;45.50;100481.36;147754;1147;104614;-77
2021/04/26 10:27:00;;;;;;;7.78;3.27;;;;;;;9.61;45.42;100469.99;147635;1148;104874;-77
2021/04/26 10:30:08;;;;;;;5.05;2.90;;;;;;;9.82;45.07;100471.66;147630;1147;104628;-76
2021/04/26 10:33:11;;;;;;;11.38;5.45;;;;;;;9.98;44.84;100479.06;147577;1147;104478;-76
2021/04/26 10:36:44;;;;;;;3.80;2.30;;;;;;;10.03;43.44;100466.98;147612;1147;104485;-76
2021/04/26 10:40:05;;;;;;;6.87;4.45;;;;;;;10.05;42.33;100466.84;147793;1147;104613;-77
2021/04/26 10:43:27;;;;;;;4.10;2.87;;;;;;;9.95;42.63;100464.20;147728;1147;104471;-78
2021/04/26 10:46:30;;;;;;;4.17;2.67;;;;;;;9.80;40.71;100465.63;147526;1147;104561;-78
2021/04/26 10:49:33;;;;;;;3.27;2.40;;;;;;;9.65;42.44;100451.91;147780;1148;104564;-76
2021/04/26 10:52:39;;;;;;;4.65;2.58;;;;;;;9.72;42.70;100447.70;147612;1147;104572;-76
2021/04/26 10:55:56;;;;;;;4.58;2.00;;;;;;;9.73;41.34;100452.02;147470;1147;104454;-77
2021/04/26 10:59:25;;;;;;;2.97;1.67;;;;;;;9.67;42.56;100454.44;147664;1147;104496;-77
2021/04/26 11:02:32;;;;;;;3.83;2.30;;;;;;;9.36;38.20;100457.26;147578;1147;104946;-77
2021/04/26 11:05:37;;;;;;;2.40;1.60;;;;;;;9.09;40.29;100452.62;147736;1147;104480;-77
2021/04/26 11:08:43;;;;;;;2.83;1.60;;;;;;;8.94;41.20;100447.69;147625;1147;104560;-77
2021/04/26 11:11:55;;;;;;;3.33;2.00;;;;;;;9.07;41.42;100450.09;147618;1147;104599;-76
2021/04/26 11:15:14;;;;;;;11.80;5.20;;;;;;;9.13;39.75;100440.72;147664;1147;104486;-75
2021/04/26 11:18:17;;;;;;;6.45;2.30;;;;;;;9.42;41.85;100425.56;147682;1147;104501;-76
2021/04/26 11:21:54;;;;;;;4.15;2.20;;;;;;;9.73;40.93;100429.87;147659;1147;104477;-77
2021/04/26 11:25:01;;;;;;;5.27;2.57;;;;;;;9.70;39.13;100436.34;147887;1147;104482;-76
2021/04/26 11:28:05;;;;;;;8.80;4.12;;;;;;;9.45;39.57;100421.80;147572;1147;104598;-76
2021/04/26 11:31:08;;;;;;;3.47;1.42;;;;;;;9.42;38.26;100417.57;147728;1146;104471;-77
2021/04/26 11:34:13;;;;;;;2.77;1.40;;;;;;;9.36;38.98;100418.14;147628;1147;104478;-77
2021/04/26 11:37:17;;;;;;;3.77;1.57;;;;;;;9.42;38.01;100414.91;147566;1147;104439;-76
2021/04/26 11:40:23;;;;;;;3.27;1.40;;;;;;;9.30;35.53;100410.73;147681;1147;104480;-76
2021/04/26 11:43:26;;;;;;;12.10;8.60;;;;;;;9.04;37.71;100416.62;147523;1147;104448;-76
2021/04/26 11:46:30;;;;;;;4.85;2.70;;;;;;;8.85;38.24;100421.89;147635;1147;104564;-77
2021/04/26 11:49:35;;;;;;;3.40;1.90;;;;;;;8.76;38.56;100414.77;147541;1147;105041;-77
2021/04/26 11:52:39;;;;;;;7.00;5.45;;;;;;;8.65;37.90;100421.86;147769;1147;104572;-77
2021/04/26 11:55:42;;;;;;;3.77;1.80;;;;;;;8.17;36.36;100442.95;147605;1147;104578;-78
2021/04/26 11:58:45;;;;;;;4.17;2.20;;;;;;;7.77;38.56;100431.25;147478;1147;104531;-77
2021/04/26 12:01:53;;;;;;;3.80;2.27;;;;;;;7.51;38.81;100445.92;147557;1147;104575;-77
2021/04/26 12:04:59;;;;;;;5.03;2.73;;;;;;;7.60;39.38;100440.67;147755;1146;104490;-78
2021/04/26 12:08:02;;;;;;;4.92;2.47;;;;;;;7.86;39.53;100434.95;147682;1147;104560;-77
2021/04/26 12:11:19;;;;;;;5.45;2.62;;;;;;;7.88;39.45;100438.32;147718;1147;104575;-77
2021/04/26 12:14:22;;;;;;;4.08;2.15;;;;;;;7.89;38.83;100433.84;147631;1147;104573;-77
2021/04/26 12:17:27;;;;;;;4.08;1.70;;;;;;;7.93;39.57;100419.31;147702;1146;104556;-76
2021/04/26 12:20:33;;;;;;;2.90;1.40;;;;;;;8.05;38.46;100427.08;147707;1147;104563;-76
2021/04/26 12:23:37;;;;;;;2.05;1.40;;;;;;;7.97;39.11;100420.77;147613;1147;104449;-79
2021/04/26 12:26:41;;;;;;;2.72;2.00;;;;;;;7.89;38.76;100417.91;147666;1147;104938;-76
2021/04/26 12:29:45;;;;;;;4.33;1.75;;;;;;;7.89;38.96;100415.25;147546;1147;104672;-76
2021/04/26 12:32:50;;;;;;;7.03;4.12;;;;;;;7.65;39.95;100421.69;147625;1147;104479;-77
2021/04/26 12:35:54;;;;;;;4.33;2.00;;;;;;;7.69;39.96;100415.14;147575;1147;104886;-76
2021/04/26 12:38:59;;;;;;;11.68;4.83;;;;;;;7.67;40.19;100411.77;147730;1145;104444;-76
2021/04/26 12:42:11;;;;;;;18.12;8.40;;;;;;;7.56;39.67;100401.22;147619;1147;104569;-77
2021/04/26 12:45:21;;;;;;;9.10;4.00;;;;;;;7.65;38.98;100401.27;147543;1147;104550;-77
2021/04/26 12:48:33;;;;;;;8.30;3.30;;;;;;;7.68;39.41;100394.88;147722;1147;104524;-78
2021/04/26 12:51:36;;;;;;;5.00;2.35;;;;;;;7.92;39.91;100401.70;147591;1147;104445;-76
2021/04/26 12:54:58;;;;;;;4.15;2.72;;;;;;;8.11;40.36;100400.96;147619;1147;104572;-76
2021/04/26 12:58:09;;;;;;;4.75;3.12;;;;;;;8.26;40.04;100387.16;147486;1145;104578;-76
2021/04/26 13:01:20;;;;;;;;;;;;;;;8.21;39.99;100385.87;147566;1147;104564;-76
2021/04/26 13:04:34;;;;;;;2.60;1.77;;;;;;;8.27;39.28;100385.34;147490;1147;104678;-77
2021/04/26 13:07:37;;;;;;;3.20;1.70;;;;;;;8.32;39.08;100363.68;147502;1147;104630;-76
2021/04/26 13:10:40;;;;;;;3.58;1.85;;;;;;;8.42;38.30;100372.55;147564;1147;104483;-77
2021/04/26 13:13:54;;;;;;;5.03;2.40;;;;;;;8.41;38.67;100357.52;147597;1147;104447;-75
2021/04/26 13:17:04;;;;;;;4.67;2.83;;;;;;;8.39;38.38;100354.16;147723;1147;104656;-76
2021/04/26 13:20:23;;;;;;;2.80;1.87;;;;;;;8.47;39.06;100354.38;147611;1148;104615;-77
2021/04/26 13:23:28;;;;;;;4.37;2.90;;;;;;;8.46;39.09;100347.36;147542;1147;104454;-76
2021/04/26 13:26:34;;;;;;;3.83;2.47;;;;;;;8.56;38.73;100342.88;147662;1147;104560;-76
2021/04/26 13:29:40;;;;;;;4.05;2.45;;;;;;;8.53;39.49;100337.86;147704;1147;104501;-77
2021/04/26 13:32:44;;;;;;;5.58;3.05;;;;;;;8.48;39.19;100329.44;147655;1147;104600;-76
2021/04/26 13:35:48;;;;;;;8.03;3.73;;;;;;;8.49;38.47;100339.12;147745;1147;104870;-77
2021/04/26 13:38:51;;;;;;;5.25;2.50;;;;;;;8.26;37.82;100347.28;147634;1147;104532;-77
2021/04/26 13:41:54;;;;;;;6.57;3.27;;;;;;;7.95;38.26;100361.57;147643;1147;104489;-77
2021/04/26 13:44:57;;;;;;;4.58;2.65;;;;;;;7.84;39.27;100363.35;147669;1148;104556;-77
2021/04/26 13:48:01;;;;;;;8.38;3.60;;;;;;;7.82;39.95;100357.33;147610;1148;104655;-76
2021/04/26 13:51:05;;;;;;;43.92;12.73;;;;;;;7.66;40.33;100352.51;147652;1147;104563;-77
2021/04/26 13:54:08;;;;;;;221.47;59.97;;;;;;;7.67;40.35;100351.52;147706;1147;104494;-76
2021/04/26 13:57:11;;;;;;;23.85;9.15;;;;;;;7.64;40.68;100345.63;147669;1147;104815;-77
2021/04/26 14:00:16;;;;;;;7.90;4.05;;;;;;;7.49;40.44;100345.15;147726;1147;104571;-76
2021/04/26 14:03:20;;;;;;;3.85;2.50;;;;;;;7.44;39.32;100334.91;148141;1147;104541;-77
2021/04/26 14:06:24;;;;;;;11.68;7.92;;;;;;;7.61;40.22;100340.59;147807;1147;104568;-75
2021/04/26 14:09:28;;;;;;;17.25;12.33;;;;;;;7.91;40.63;100336.25;147913;1148;104572;-76
2021/04/26 14:12:31;;;;;;;9.25;5.58;;;;;;;8.17;41.45;100339.28;147757;1147;104948;-77
2021/04/26 14:15:34;;;;;;;279.48;85.92;;;;;;;8.47;40.69;100329.58;147948;1147;104579;-75